sensor_id;sensor_type;location;lat;lon;timestamp;P1;durP1;ratioP1;P2;durP2;ratioP2
15132;SDS011;7667;51.232;17.110;2024-01-07T00:02:05;11.07;;;7.23;;
15132;SDS011;7667;51.232;17.110;2024-01-07T00:04:32;10.47;;;7.17;;
15132;SDS011;7667;51.232;17.110;2024-01-07T00:07:01;11.53;;;7.13;;
15132;SDS011;7667;51.232;17.110;2024-01-07T00:09:29;13.83;;;8.07;;
15132;SDS011;7667;51.232;17.110;2024-01-07T00:11:57;10.60;;;6.77;;
15132;SDS011;7667;51.232;17.110;2024-01-07T00:14:25;12.60;;;8.10;;
15132;SDS011;7667;51.232;17.110;2024-01-07T00:16:53;13.23;;;6.80;;
15132;SDS011;7667;51.232;17.110;2024-01-07T00:19:20;11.33;;;6.63;;
15132;SDS011;7667;51.232;17.110;2024-01-07T00:21:49;12.63;;;6.43;;
15132;SDS011;7667;51.232;17.110;2024-01-07T00:24:17;15.17;;;7.80;;
15132;SDS011;7667;51.232;17.110;2024-01-07T00:26:44;16.03;;;9.00;;
15132;SDS011;7667;51.232;17.110;2024-01-07T00:29:12;12.73;;;7.33;;
15132;SDS011;7667;51.232;17.110;2024-01-07T00:31:40;8.80;;;6.30;;
15132;SDS011;7667;51.232;17.110;2024-01-07T00:34:08;13.93;;;7.93;;
15132;SDS011;7667;51.232;17.110;2024-01-07T00:36:36;17.50;;;9.60;;
15132;SDS011;7667;51.232;17.110;2024-01-07T00:39:05;22.57;;;10.87;;
15132;SDS011;7667;51.232;17.110;2024-01-07T00:41:34;18.30;;;9.97;;
15132;SDS011;7667;51.232;17.110;2024-01-07T00:44:02;12.33;;;8.03;;
15132;SDS011;7667;51.232;17.110;2024-01-07T00:46:29;10.60;;;7.20;;
15132;SDS011;7667;51.232;17.110;2024-01-07T00:48:57;14.47;;;8.20;;
15132;SDS011;7667;51.232;17.110;2024-01-07T00:51:25;18.63;;;8.87;;
15132;SDS011;7667;51.232;17.110;2024-01-07T00:53:53;14.47;;;7.20;;
15132;SDS011;7667;51.232;17.110;2024-01-07T00:56:21;11.60;;;7.20;;
15132;SDS011;7667;51.232;17.110;2024-01-07T00:58:53;10.57;;;6.33;;
15132;SDS011;7667;51.232;17.110;2024-01-07T01:01:21;15.33;;;7.67;;
15132;SDS011;7667;51.232;17.110;2024-01-07T01:03:49;14.70;;;8.23;;
15132;SDS011;7667;51.232;17.110;2024-01-07T01:06:17;13.73;;;7.67;;
15132;SDS011;7667;51.232;17.110;2024-01-07T01:08:45;14.03;;;7.73;;
15132;SDS011;7667;51.232;17.110;2024-01-07T01:11:13;9.70;;;5.57;;
15132;SDS011;7667;51.232;17.110;2024-01-07T01:13:41;10.93;;;6.90;;
15132;SDS011;7667;51.232;17.110;2024-01-07T01:16:09;9.67;;;6.60;;
15132;SDS011;7667;51.232;17.110;2024-01-07T01:18:37;12.57;;;7.50;;
15132;SDS011;7667;51.232;17.110;2024-01-07T01:21:05;10.70;;;6.67;;
15132;SDS011;7667;51.232;17.110;2024-01-07T01:23:34;10.70;;;7.30;;
15132;SDS011;7667;51.232;17.110;2024-01-07T01:26:02;10.10;;;6.90;;
15132;SDS011;7667;51.232;17.110;2024-01-07T01:28:30;10.83;;;6.90;;
15132;SDS011;7667;51.232;17.110;2024-01-07T01:30:58;13.27;;;6.90;;
15132;SDS011;7667;51.232;17.110;2024-01-07T01:33:26;11.90;;;6.87;;
15132;SDS011;7667;51.232;17.110;2024-01-07T01:35:54;10.63;;;6.40;;
15132;SDS011;7667;51.232;17.110;2024-01-07T01:38:22;8.90;;;5.93;;
15132;SDS011;7667;51.232;17.110;2024-01-07T01:40:53;11.03;;;7.07;;
15132;SDS011;7667;51.232;17.110;2024-01-07T01:43:25;9.43;;;6.40;;
15132;SDS011;7667;51.232;17.110;2024-01-07T01:45:54;10.60;;;6.13;;
15132;SDS011;7667;51.232;17.110;2024-01-07T01:48:22;10.57;;;6.13;;
15132;SDS011;7667;51.232;17.110;2024-01-07T01:50:51;11.27;;;7.00;;
15132;SDS011;7667;51.232;17.110;2024-01-07T01:53:20;11.57;;;7.63;;
15132;SDS011;7667;51.232;17.110;2024-01-07T01:55:48;14.63;;;7.73;;
15132;SDS011;7667;51.232;17.110;2024-01-07T01:58:16;10.80;;;6.63;;
15132;SDS011;7667;51.232;17.110;2024-01-07T02:00:46;11.20;;;6.67;;
15132;SDS011;7667;51.232;17.110;2024-01-07T02:03:14;10.17;;;6.43;;
15132;SDS011;7667;51.232;17.110;2024-01-07T02:05:43;12.83;;;7.07;;
15132;SDS011;7667;51.232;17.110;2024-01-07T02:08:11;16.20;;;8.33;;
15132;SDS011;7667;51.232;17.110;2024-01-07T02:10:39;13.40;;;7.70;;
15132;SDS011;7667;51.232;17.110;2024-01-07T02:13:08;14.23;;;7.43;;
15132;SDS011;7667;51.232;17.110;2024-01-07T02:15:37;10.33;;;6.63;;
15132;SDS011;7667;51.232;17.110;2024-01-07T02:18:05;9.70;;;6.83;;
15132;SDS011;7667;51.232;17.110;2024-01-07T02:20:33;11.83;;;7.07;;
15132;SDS011;7667;51.232;17.110;2024-01-07T02:23:03;10.40;;;6.77;;
15132;SDS011;7667;51.232;17.110;2024-01-07T02:25:35;11.10;;;6.33;;
15132;SDS011;7667;51.232;17.110;2024-01-07T02:28:03;10.07;;;6.63;;
15132;SDS011;7667;51.232;17.110;2024-01-07T02:30:32;12.63;;;6.63;;
15132;SDS011;7667;51.232;17.110;2024-01-07T02:33:01;9.77;;;6.50;;
15132;SDS011;7667;51.232;17.110;2024-01-07T02:35:30;9.37;;;6.17;;
15132;SDS011;7667;51.232;17.110;2024-01-07T02:37:58;11.17;;;7.27;;
15132;SDS011;7667;51.232;17.110;2024-01-07T02:40:26;11.27;;;7.17;;
15132;SDS011;7667;51.232;17.110;2024-01-07T02:42:54;11.33;;;7.73;;
15132;SDS011;7667;51.232;17.110;2024-01-07T02:45:23;9.70;;;6.00;;
15132;SDS011;7667;51.232;17.110;2024-01-07T02:47:51;11.77;;;6.67;;
15132;SDS011;7667;51.232;17.110;2024-01-07T02:50:19;9.80;;;6.70;;
15132;SDS011;7667;51.232;17.110;2024-01-07T02:52:47;9.70;;;6.10;;
15132;SDS011;7667;51.232;17.110;2024-01-07T02:55:15;10.03;;;6.67;;
15132;SDS011;7667;51.232;17.110;2024-01-07T02:57:43;9.00;;;6.13;;
15132;SDS011;7667;51.232;17.110;2024-01-07T03:00:11;10.93;;;6.70;;
15132;SDS011;7667;51.232;17.110;2024-01-07T03:02:39;9.03;;;6.37;;
15132;SDS011;7667;51.232;17.110;2024-01-07T03:05:07;8.90;;;6.07;;
15132;SDS011;7667;51.232;17.110;2024-01-07T03:07:37;9.43;;;5.70;;
15132;SDS011;7667;51.232;17.110;2024-01-07T03:10:06;8.67;;;6.17;;
15132;SDS011;7667;51.232;17.110;2024-01-07T03:12:34;9.00;;;5.57;;
15132;SDS011;7667;51.232;17.110;2024-01-07T03:15:03;9.87;;;5.80;;
15132;SDS011;7667;51.232;17.110;2024-01-07T03:17:32;10.20;;;6.03;;
15132;SDS011;7667;51.232;17.110;2024-01-07T03:20:01;9.10;;;5.87;;
15132;SDS011;7667;51.232;17.110;2024-01-07T03:22:29;8.73;;;5.87;;
15132;SDS011;7667;51.232;17.110;2024-01-07T03:24:57;8.90;;;5.83;;
15132;SDS011;7667;51.232;17.110;2024-01-07T03:27:25;6.57;;;4.80;;
15132;SDS011;7667;51.232;17.110;2024-01-07T03:29:53;8.10;;;5.67;;
15132;SDS011;7667;51.232;17.110;2024-01-07T03:32:20;8.40;;;5.70;;
15132;SDS011;7667;51.232;17.110;2024-01-07T03:34:48;8.77;;;5.17;;
15132;SDS011;7667;51.232;17.110;2024-01-07T03:37:16;10.17;;;6.10;;
15132;SDS011;7667;51.232;17.110;2024-01-07T03:39:45;8.40;;;5.73;;
15132;SDS011;7667;51.232;17.110;2024-01-07T03:42:13;10.67;;;5.17;;
15132;SDS011;7667;51.232;17.110;2024-01-07T03:44:41;8.37;;;4.77;;
15132;SDS011;7667;51.232;17.110;2024-01-07T03:47:09;9.13;;;5.27;;
15132;SDS011;7667;51.232;17.110;2024-01-07T03:49:37;8.47;;;4.77;;
15132;SDS011;7667;51.232;17.110;2024-01-07T03:52:05;8.73;;;5.67;;
15132;SDS011;7667;51.232;17.110;2024-01-07T03:54:34;9.33;;;5.50;;
15132;SDS011;7667;51.232;17.110;2024-01-07T03:57:02;9.03;;;5.93;;
15132;SDS011;7667;51.232;17.110;2024-01-07T03:59:30;8.60;;;5.70;;
15132;SDS011;7667;51.232;17.110;2024-01-07T04:01:58;7.90;;;5.70;;
15132;SDS011;7667;51.232;17.110;2024-01-07T04:04:26;8.87;;;5.30;;
15132;SDS011;7667;51.232;17.110;2024-01-07T04:06:54;7.53;;;5.40;;
15132;SDS011;7667;51.232;17.110;2024-01-07T04:09:23;7.53;;;5.67;;
15132;SDS011;7667;51.232;17.110;2024-01-07T04:11:51;8.40;;;5.77;;
15132;SDS011;7667;51.232;17.110;2024-01-07T04:14:18;7.40;;;5.47;;
15132;SDS011;7667;51.232;17.110;2024-01-07T04:16:46;8.23;;;5.60;;
15132;SDS011;7667;51.232;17.110;2024-01-07T04:19:14;8.77;;;5.43;;
15132;SDS011;7667;51.232;17.110;2024-01-07T04:21:45;8.23;;;5.20;;
15132;SDS011;7667;51.232;17.110;2024-01-07T04:24:13;6.90;;;4.87;;
15132;SDS011;7667;51.232;17.110;2024-01-07T04:26:42;7.40;;;4.90;;
15132;SDS011;7667;51.232;17.110;2024-01-07T04:29:10;6.67;;;4.93;;
15132;SDS011;7667;51.232;17.110;2024-01-07T04:31:37;7.57;;;4.80;;
15132;SDS011;7667;51.232;17.110;2024-01-07T04:34:06;8.07;;;5.20;;
15132;SDS011;7667;51.232;17.110;2024-01-07T04:36:34;7.53;;;5.20;;
15132;SDS011;7667;51.232;17.110;2024-01-07T04:39:02;6.80;;;5.07;;
15132;SDS011;7667;51.232;17.110;2024-01-07T04:41:30;7.07;;;4.63;;
15132;SDS011;7667;51.232;17.110;2024-01-07T04:43:58;7.23;;;5.23;;
15132;SDS011;7667;51.232;17.110;2024-01-07T04:46:25;6.73;;;4.73;;
15132;SDS011;7667;51.232;17.110;2024-01-07T04:48:54;7.23;;;4.80;;
15132;SDS011;7667;51.232;17.110;2024-01-07T04:51:22;7.20;;;4.57;;
15132;SDS011;7667;51.232;17.110;2024-01-07T04:53:50;6.17;;;4.60;;
15132;SDS011;7667;51.232;17.110;2024-01-07T04:56:18;5.50;;;4.57;;
15132;SDS011;7667;51.232;17.110;2024-01-07T04:58:47;5.70;;;4.47;;
15132;SDS011;7667;51.232;17.110;2024-01-07T05:01:15;6.47;;;4.27;;
15132;SDS011;7667;51.232;17.110;2024-01-07T05:03:43;8.03;;;4.80;;
15132;SDS011;7667;51.232;17.110;2024-01-07T05:06:11;6.50;;;5.00;;
15132;SDS011;7667;51.232;17.110;2024-01-07T05:08:42;7.10;;;4.60;;
15132;SDS011;7667;51.232;17.110;2024-01-07T05:11:10;7.43;;;4.60;;
15132;SDS011;7667;51.232;17.110;2024-01-07T05:13:38;6.83;;;4.47;;
15132;SDS011;7667;51.232;17.110;2024-01-07T05:16:06;7.03;;;4.90;;
15132;SDS011;7667;51.232;17.110;2024-01-07T05:18:34;6.43;;;4.37;;
15132;SDS011;7667;51.232;17.110;2024-01-07T05:21:02;6.73;;;4.80;;
15132;SDS011;7667;51.232;17.110;2024-01-07T05:23:33;6.53;;;4.57;;
15132;SDS011;7667;51.232;17.110;2024-01-07T05:26:01;5.57;;;4.03;;
15132;SDS011;7667;51.232;17.110;2024-01-07T05:28:29;4.90;;;3.83;;
15132;SDS011;7667;51.232;17.110;2024-01-07T05:30:57;6.17;;;4.60;;
15132;SDS011;7667;51.232;17.110;2024-01-07T05:33:25;5.77;;;4.60;;
15132;SDS011;7667;51.232;17.110;2024-01-07T05:35:53;5.50;;;4.07;;
15132;SDS011;7667;51.232;17.110;2024-01-07T05:38:21;5.57;;;3.90;;
15132;SDS011;7667;51.232;17.110;2024-01-07T05:40:49;4.73;;;3.60;;
15132;SDS011;7667;51.232;17.110;2024-01-07T05:43:17;5.07;;;3.60;;
15132;SDS011;7667;51.232;17.110;2024-01-07T05:45:45;5.50;;;4.03;;
15132;SDS011;7667;51.232;17.110;2024-01-07T05:48:13;5.80;;;4.23;;
15132;SDS011;7667;51.232;17.110;2024-01-07T05:50:41;6.33;;;4.27;;
15132;SDS011;7667;51.232;17.110;2024-01-07T05:53:09;5.50;;;4.47;;
15132;SDS011;7667;51.232;17.110;2024-01-07T05:55:37;4.87;;;4.10;;
15132;SDS011;7667;51.232;17.110;2024-01-07T05:58:05;5.60;;;4.37;;
15132;SDS011;7667;51.232;17.110;2024-01-07T06:00:33;4.80;;;4.07;;
15132;SDS011;7667;51.232;17.110;2024-01-07T06:03:01;5.17;;;3.80;;
15132;SDS011;7667;51.232;17.110;2024-01-07T06:05:29;4.97;;;3.93;;
15132;SDS011;7667;51.232;17.110;2024-01-07T06:07:57;6.57;;;4.60;;
15132;SDS011;7667;51.232;17.110;2024-01-07T06:10:26;5.30;;;3.97;;
15132;SDS011;7667;51.232;17.110;2024-01-07T06:12:54;5.90;;;4.27;;
15132;SDS011;7667;51.232;17.110;2024-01-07T06:15:21;7.20;;;4.63;;
15132;SDS011;7667;51.232;17.110;2024-01-07T06:17:49;4.93;;;3.87;;
15132;SDS011;7667;51.232;17.110;2024-01-07T06:20:18;6.20;;;4.23;;
15132;SDS011;7667;51.232;17.110;2024-01-07T06:22:46;5.07;;;4.30;;
15132;SDS011;7667;51.232;17.110;2024-01-07T06:25:14;5.77;;;4.00;;
15132;SDS011;7667;51.232;17.110;2024-01-07T06:27:43;5.87;;;4.13;;
15132;SDS011;7667;51.232;17.110;2024-01-07T06:30:11;4.97;;;3.60;;
15132;SDS011;7667;51.232;17.110;2024-01-07T06:32:40;5.50;;;4.23;;
15132;SDS011;7667;51.232;17.110;2024-01-07T06:35:08;5.00;;;3.93;;
15132;SDS011;7667;51.232;17.110;2024-01-07T06:37:36;5.03;;;3.80;;
15132;SDS011;7667;51.232;17.110;2024-01-07T06:40:04;5.33;;;3.33;;
15132;SDS011;7667;51.232;17.110;2024-01-07T06:42:32;4.50;;;3.37;;
15132;SDS011;7667;51.232;17.110;2024-01-07T06:45:00;5.57;;;3.27;;
15132;SDS011;7667;51.232;17.110;2024-01-07T06:47:28;5.87;;;3.43;;
15132;SDS011;7667;51.232;17.110;2024-01-07T06:49:56;4.10;;;3.10;;
15132;SDS011;7667;51.232;17.110;2024-01-07T06:52:24;4.43;;;3.50;;
15132;SDS011;7667;51.232;17.110;2024-01-07T06:54:52;3.50;;;2.83;;
15132;SDS011;7667;51.232;17.110;2024-01-07T06:57:20;3.87;;;2.80;;
15132;SDS011;7667;51.232;17.110;2024-01-07T06:59:48;4.13;;;2.90;;
15132;SDS011;7667;51.232;17.110;2024-01-07T07:02:16;3.03;;;2.60;;
15132;SDS011;7667;51.232;17.110;2024-01-07T07:04:44;4.17;;;2.70;;
15132;SDS011;7667;51.232;17.110;2024-01-07T07:07:12;2.40;;;2.20;;
15132;SDS011;7667;51.232;17.110;2024-01-07T07:09:40;3.40;;;2.60;;
15132;SDS011;7667;51.232;17.110;2024-01-07T07:12:08;3.83;;;3.00;;
15132;SDS011;7667;51.232;17.110;2024-01-07T07:14:37;3.27;;;2.53;;
15132;SDS011;7667;51.232;17.110;2024-01-07T07:17:05;3.73;;;2.87;;
15132;SDS011;7667;51.232;17.110;2024-01-07T07:19:33;2.90;;;2.33;;
15132;SDS011;7667;51.232;17.110;2024-01-07T07:22:01;4.10;;;2.30;;
15132;SDS011;7667;51.232;17.110;2024-01-07T07:24:29;3.07;;;2.77;;
15132;SDS011;7667;51.232;17.110;2024-01-07T07:26:57;3.23;;;2.33;;
15132;SDS011;7667;51.232;17.110;2024-01-07T07:29:25;3.77;;;2.67;;
15132;SDS011;7667;51.232;17.110;2024-01-07T07:31:53;3.80;;;2.50;;
15132;SDS011;7667;51.232;17.110;2024-01-07T07:34:21;3.00;;;2.43;;
15132;SDS011;7667;51.232;17.110;2024-01-07T07:36:49;2.80;;;2.40;;
15132;SDS011;7667;51.232;17.110;2024-01-07T07:39:17;2.90;;;2.23;;
15132;SDS011;7667;51.232;17.110;2024-01-07T07:41:44;3.83;;;2.90;;
15132;SDS011;7667;51.232;17.110;2024-01-07T07:44:12;3.63;;;2.80;;
15132;SDS011;7667;51.232;17.110;2024-01-07T07:46:40;3.47;;;2.43;;
15132;SDS011;7667;51.232;17.110;2024-01-07T07:49:08;2.63;;;2.20;;
15132;SDS011;7667;51.232;17.110;2024-01-07T07:51:38;3.60;;;2.57;;
15132;SDS011;7667;51.232;17.110;2024-01-07T07:54:06;5.00;;;2.93;;
15132;SDS011;7667;51.232;17.110;2024-01-07T07:56:34;5.30;;;2.23;;
15132;SDS011;7667;51.232;17.110;2024-01-07T07:59:02;3.17;;;2.57;;
15132;SDS011;7667;51.232;17.110;2024-01-07T08:01:30;3.33;;;2.47;;
15132;SDS011;7667;51.232;17.110;2024-01-07T08:03:58;3.63;;;2.70;;
15132;SDS011;7667;51.232;17.110;2024-01-07T08:06:26;3.27;;;2.63;;
15132;SDS011;7667;51.232;17.110;2024-01-07T08:08:54;3.47;;;2.77;;
15132;SDS011;7667;51.232;17.110;2024-01-07T08:11:22;3.97;;;2.80;;
15132;SDS011;7667;51.232;17.110;2024-01-07T08:13:51;4.57;;;2.70;;
15132;SDS011;7667;51.232;17.110;2024-01-07T08:16:19;3.63;;;2.90;;
15132;SDS011;7667;51.232;17.110;2024-01-07T08:18:47;3.63;;;3.03;;
15132;SDS011;7667;51.232;17.110;2024-01-07T08:21:15;3.77;;;3.00;;
15132;SDS011;7667;51.232;17.110;2024-01-07T08:23:43;3.90;;;3.10;;
15132;SDS011;7667;51.232;17.110;2024-01-07T08:26:11;4.10;;;3.20;;
15132;SDS011;7667;51.232;17.110;2024-01-07T08:28:39;4.37;;;3.53;;
15132;SDS011;7667;51.232;17.110;2024-01-07T08:31:07;5.27;;;3.70;;
15132;SDS011;7667;51.232;17.110;2024-01-07T08:33:36;4.37;;;3.17;;
15132;SDS011;7667;51.232;17.110;2024-01-07T08:36:04;5.80;;;4.37;;
15132;SDS011;7667;51.232;17.110;2024-01-07T08:38:33;5.83;;;4.30;;
15132;SDS011;7667;51.232;17.110;2024-01-07T08:41:02;7.03;;;5.20;;
15132;SDS011;7667;51.232;17.110;2024-01-07T08:43:30;50.90;;;26.13;;
15132;SDS011;7667;51.232;17.110;2024-01-07T08:45:58;79.30;;;38.53;;
15132;SDS011;7667;51.232;17.110;2024-01-07T08:48:26;33.50;;;20.17;;
15132;SDS011;7667;51.232;17.110;2024-01-07T08:50:54;19.83;;;13.40;;
15132;SDS011;7667;51.232;17.110;2024-01-07T08:53:22;9.77;;;6.87;;
15132;SDS011;7667;51.232;17.110;2024-01-07T08:55:50;7.80;;;5.70;;
15132;SDS011;7667;51.232;17.110;2024-01-07T08:58:18;8.60;;;4.10;;
15132;SDS011;7667;51.232;17.110;2024-01-07T09:00:46;15.00;;;12.13;;
15132;SDS011;7667;51.232;17.110;2024-01-07T09:03:14;10.33;;;5.60;;
15132;SDS011;7667;51.232;17.110;2024-01-07T09:05:42;5.80;;;4.00;;
15132;SDS011;7667;51.232;17.110;2024-01-07T09:08:10;12.40;;;10.33;;
15132;SDS011;7667;51.232;17.110;2024-01-07T09:10:41;9.93;;;8.67;;
15132;SDS011;7667;51.232;17.110;2024-01-07T09:13:09;11.80;;;9.63;;
15132;SDS011;7667;51.232;17.110;2024-01-07T09:15:37;8.60;;;6.07;;
15132;SDS011;7667;51.232;17.110;2024-01-07T09:18:05;5.57;;;3.50;;
15132;SDS011;7667;51.232;17.110;2024-01-07T09:20:37;5.77;;;4.40;;
15132;SDS011;7667;51.232;17.110;2024-01-07T09:23:05;6.93;;;4.93;;
15132;SDS011;7667;51.232;17.110;2024-01-07T09:25:33;8.03;;;5.40;;
15132;SDS011;7667;51.232;17.110;2024-01-07T09:28:01;5.17;;;4.10;;
15132;SDS011;7667;51.232;17.110;2024-01-07T09:30:29;5.03;;;3.57;;
15132;SDS011;7667;51.232;17.110;2024-01-07T09:32:57;6.00;;;4.83;;
15132;SDS011;7667;51.232;17.110;2024-01-07T09:35:26;4.97;;;3.57;;
15132;SDS011;7667;51.232;17.110;2024-01-07T09:37:54;4.87;;;4.03;;
15132;SDS011;7667;51.232;17.110;2024-01-07T09:40:23;4.13;;;3.23;;
15132;SDS011;7667;51.232;17.110;2024-01-07T09:42:51;4.47;;;3.40;;
15132;SDS011;7667;51.232;17.110;2024-01-07T09:45:19;6.20;;;3.50;;
15132;SDS011;7667;51.232;17.110;2024-01-07T09:47:48;4.87;;;3.13;;
15132;SDS011;7667;51.232;17.110;2024-01-07T09:50:16;5.13;;;3.20;;
15132;SDS011;7667;51.232;17.110;2024-01-07T09:52:45;5.50;;;3.70;;
15132;SDS011;7667;51.232;17.110;2024-01-07T09:55:18;4.30;;;3.10;;
15132;SDS011;7667;51.232;17.110;2024-01-07T09:57:57;3.93;;;2.90;;
15132;SDS011;7667;51.232;17.110;2024-01-07T10:00:26;6.13;;;3.80;;
15132;SDS011;7667;51.232;17.110;2024-01-07T10:02:55;4.87;;;3.40;;
15132;SDS011;7667;51.232;17.110;2024-01-07T10:05:23;4.70;;;3.00;;
15132;SDS011;7667;51.232;17.110;2024-01-07T10:07:51;4.70;;;3.20;;
15132;SDS011;7667;51.232;17.110;2024-01-07T10:10:22;5.60;;;2.80;;
15132;SDS011;7667;51.232;17.110;2024-01-07T10:12:50;3.53;;;2.90;;
15132;SDS011;7667;51.232;17.110;2024-01-07T10:15:20;5.20;;;3.10;;
15132;SDS011;7667;51.232;17.110;2024-01-07T10:17:48;5.53;;;3.80;;
15132;SDS011;7667;51.232;17.110;2024-01-07T10:20:16;4.23;;;3.37;;
15132;SDS011;7667;51.232;17.110;2024-01-07T10:22:50;7.40;;;4.57;;
15132;SDS011;7667;51.232;17.110;2024-01-07T10:25:19;5.13;;;3.73;;
15132;SDS011;7667;51.232;17.110;2024-01-07T10:27:47;5.10;;;3.27;;
15132;SDS011;7667;51.232;17.110;2024-01-07T10:30:16;6.00;;;3.60;;
15132;SDS011;7667;51.232;17.110;2024-01-07T10:32:44;4.00;;;2.87;;
15132;SDS011;7667;51.232;17.110;2024-01-07T10:35:13;5.20;;;3.40;;
15132;SDS011;7667;51.232;17.110;2024-01-07T10:37:41;5.20;;;3.43;;
15132;SDS011;7667;51.232;17.110;2024-01-07T10:40:12;6.27;;;4.03;;
15132;SDS011;7667;51.232;17.110;2024-01-07T10:42:40;6.13;;;4.10;;
15132;SDS011;7667;51.232;17.110;2024-01-07T10:45:08;6.93;;;4.90;;
15132;SDS011;7667;51.232;17.110;2024-01-07T10:47:37;6.47;;;4.10;;
15132;SDS011;7667;51.232;17.110;2024-01-07T10:50:08;5.80;;;4.43;;
15132;SDS011;7667;51.232;17.110;2024-01-07T10:52:39;6.70;;;4.63;;
15132;SDS011;7667;51.232;17.110;2024-01-07T10:55:11;7.97;;;4.70;;
15132;SDS011;7667;51.232;17.110;2024-01-07T10:57:45;7.47;;;4.70;;
15132;SDS011;7667;51.232;17.110;2024-01-07T11:00:15;7.33;;;4.43;;
15132;SDS011;7667;51.232;17.110;2024-01-07T11:05:40;6.63;;;4.50;;
15132;SDS011;7667;51.232;17.110;2024-01-07T11:10:57;8.90;;;5.40;;
15132;SDS011;7667;51.232;17.110;2024-01-07T11:13:43;10.90;;;5.60;;
15132;SDS011;7667;51.232;17.110;2024-01-07T11:16:11;9.53;;;6.47;;
15132;SDS011;7667;51.232;17.110;2024-01-07T11:18:40;6.87;;;4.73;;
15132;SDS011;7667;51.232;17.110;2024-01-07T11:21:21;11.33;;;6.13;;
15132;SDS011;7667;51.232;17.110;2024-01-07T11:23:51;8.57;;;4.77;;
15132;SDS011;7667;51.232;17.110;2024-01-07T11:26:23;10.37;;;5.63;;
15132;SDS011;7667;51.232;17.110;2024-01-07T11:28:55;8.50;;;4.73;;
15132;SDS011;7667;51.232;17.110;2024-01-07T11:34:39;7.83;;;5.30;;
15132;SDS011;7667;51.232;17.110;2024-01-07T11:37:14;8.23;;;5.07;;
15132;SDS011;7667;51.232;17.110;2024-01-07T11:39:43;7.83;;;5.20;;
15132;SDS011;7667;51.232;17.110;2024-01-07T11:42:14;8.60;;;5.37;;
15132;SDS011;7667;51.232;17.110;2024-01-07T11:47:18;8.77;;;5.43;;
15132;SDS011;7667;51.232;17.110;2024-01-07T11:49:47;7.50;;;5.50;;
15132;SDS011;7667;51.232;17.110;2024-01-07T11:52:19;7.20;;;5.17;;
15132;SDS011;7667;51.232;17.110;2024-01-07T11:54:47;10.63;;;6.77;;
15132;SDS011;7667;51.232;17.110;2024-01-07T11:57:16;8.93;;;5.67;;
15132;SDS011;7667;51.232;17.110;2024-01-07T11:59:44;11.23;;;7.13;;
15132;SDS011;7667;51.232;17.110;2024-01-07T12:02:12;9.40;;;5.70;;
15132;SDS011;7667;51.232;17.110;2024-01-07T12:04:42;7.87;;;5.33;;
15132;SDS011;7667;51.232;17.110;2024-01-07T12:07:09;8.47;;;5.80;;
15132;SDS011;7667;51.232;17.110;2024-01-07T12:09:41;8.43;;;5.47;;
15132;SDS011;7667;51.232;17.110;2024-01-07T12:12:09;8.87;;;5.37;;
15132;SDS011;7667;51.232;17.110;2024-01-07T12:14:37;9.73;;;5.90;;
15132;SDS011;7667;51.232;17.110;2024-01-07T12:17:08;9.27;;;5.23;;
15132;SDS011;7667;51.232;17.110;2024-01-07T12:19:39;15.00;;;8.43;;
15132;SDS011;7667;51.232;17.110;2024-01-07T12:22:08;11.83;;;7.20;;
15132;SDS011;7667;51.232;17.110;2024-01-07T12:24:36;17.83;;;10.27;;
15132;SDS011;7667;51.232;17.110;2024-01-07T12:27:05;14.43;;;9.37;;
15132;SDS011;7667;51.232;17.110;2024-01-07T12:29:33;15.60;;;7.50;;
15132;SDS011;7667;51.232;17.110;2024-01-07T12:32:01;9.93;;;6.43;;
15132;SDS011;7667;51.232;17.110;2024-01-07T12:34:30;10.70;;;6.87;;
15132;SDS011;7667;51.232;17.110;2024-01-07T12:37:00;14.00;;;8.47;;
15132;SDS011;7667;51.232;17.110;2024-01-07T12:39:29;12.40;;;8.27;;
15132;SDS011;7667;51.232;17.110;2024-01-07T12:41:57;11.17;;;6.57;;
15132;SDS011;7667;51.232;17.110;2024-01-07T12:44:28;12.23;;;7.80;;
15132;SDS011;7667;51.232;17.110;2024-01-07T12:46:56;12.93;;;7.93;;
15132;SDS011;7667;51.232;17.110;2024-01-07T12:49:24;14.23;;;8.30;;
15132;SDS011;7667;51.232;17.110;2024-01-07T12:51:52;12.00;;;7.83;;
15132;SDS011;7667;51.232;17.110;2024-01-07T12:54:20;14.33;;;8.67;;
15132;SDS011;7667;51.232;17.110;2024-01-07T12:56:50;11.13;;;7.60;;
15132;SDS011;7667;51.232;17.110;2024-01-07T12:59:18;11.67;;;7.33;;
15132;SDS011;7667;51.232;17.110;2024-01-07T13:01:46;16.77;;;8.43;;
15132;SDS011;7667;51.232;17.110;2024-01-07T13:04:14;15.73;;;9.10;;
15132;SDS011;7667;51.232;17.110;2024-01-07T13:06:43;23.73;;;12.50;;
15132;SDS011;7667;51.232;17.110;2024-01-07T13:09:11;11.93;;;7.40;;
15132;SDS011;7667;51.232;17.110;2024-01-07T13:11:39;15.47;;;9.17;;
15132;SDS011;7667;51.232;17.110;2024-01-07T13:14:07;14.87;;;7.73;;
15132;SDS011;7667;51.232;17.110;2024-01-07T13:16:35;15.10;;;8.20;;
15132;SDS011;7667;51.232;17.110;2024-01-07T13:19:03;12.23;;;7.60;;
15132;SDS011;7667;51.232;17.110;2024-01-07T13:21:31;12.63;;;7.67;;
15132;SDS011;7667;51.232;17.110;2024-01-07T13:24:05;12.73;;;7.33;;
15132;SDS011;7667;51.232;17.110;2024-01-07T13:26:33;15.23;;;7.70;;
15132;SDS011;7667;51.232;17.110;2024-01-07T13:29:01;13.10;;;7.83;;
15132;SDS011;7667;51.232;17.110;2024-01-07T13:31:30;13.17;;;7.03;;
15132;SDS011;7667;51.232;17.110;2024-01-07T13:33:59;8.90;;;5.93;;
15132;SDS011;7667;51.232;17.110;2024-01-07T13:36:27;11.37;;;7.40;;
15132;SDS011;7667;51.232;17.110;2024-01-07T13:38:55;12.30;;;7.37;;
15132;SDS011;7667;51.232;17.110;2024-01-07T13:41:23;10.37;;;6.20;;
15132;SDS011;7667;51.232;17.110;2024-01-07T13:43:55;11.00;;;6.77;;
15132;SDS011;7667;51.232;17.110;2024-01-07T13:46:24;9.60;;;6.30;;
15132;SDS011;7667;51.232;17.110;2024-01-07T13:48:54;12.07;;;6.90;;
15132;SDS011;7667;51.232;17.110;2024-01-07T13:51:23;11.67;;;6.50;;
15132;SDS011;7667;51.232;17.110;2024-01-07T13:53:51;9.93;;;6.23;;
15132;SDS011;7667;51.232;17.110;2024-01-07T13:56:19;10.47;;;6.57;;
15132;SDS011;7667;51.232;17.110;2024-01-07T13:58:46;10.73;;;7.03;;
15132;SDS011;7667;51.232;17.110;2024-01-07T14:01:16;12.83;;;7.00;;
15132;SDS011;7667;51.232;17.110;2024-01-07T14:03:45;11.50;;;7.00;;
15132;SDS011;7667;51.232;17.110;2024-01-07T14:06:13;12.77;;;7.60;;
15132;SDS011;7667;51.232;17.110;2024-01-07T14:08:41;11.97;;;7.03;;
15132;SDS011;7667;51.232;17.110;2024-01-07T14:11:09;11.93;;;7.17;;
15132;SDS011;7667;51.232;17.110;2024-01-07T14:13:37;12.77;;;7.63;;
15132;SDS011;7667;51.232;17.110;2024-01-07T14:16:05;10.30;;;7.37;;
15132;SDS011;7667;51.232;17.110;2024-01-07T14:18:33;14.27;;;6.97;;
15132;SDS011;7667;51.232;17.110;2024-01-07T14:21:01;14.50;;;8.80;;
15132;SDS011;7667;51.232;17.110;2024-01-07T14:23:30;14.87;;;9.13;;
15132;SDS011;7667;51.232;17.110;2024-01-07T14:25:59;16.07;;;9.27;;
15132;SDS011;7667;51.232;17.110;2024-01-07T14:28:27;12.17;;;7.37;;
15132;SDS011;7667;51.232;17.110;2024-01-07T14:30:55;16.67;;;9.83;;
15132;SDS011;7667;51.232;17.110;2024-01-07T14:33:24;16.23;;;9.60;;
15132;SDS011;7667;51.232;17.110;2024-01-07T14:35:53;17.67;;;9.67;;
15132;SDS011;7667;51.232;17.110;2024-01-07T14:38:21;15.87;;;8.87;;
15132;SDS011;7667;51.232;17.110;2024-01-07T14:40:49;16.63;;;10.23;;
15132;SDS011;7667;51.232;17.110;2024-01-07T14:43:18;16.87;;;9.37;;
15132;SDS011;7667;51.232;17.110;2024-01-07T14:45:47;19.70;;;11.03;;
15132;SDS011;7667;51.232;17.110;2024-01-07T14:48:15;16.60;;;9.73;;
15132;SDS011;7667;51.232;17.110;2024-01-07T14:50:43;19.23;;;11.53;;
15132;SDS011;7667;51.232;17.110;2024-01-07T14:53:14;14.73;;;9.70;;
15132;SDS011;7667;51.232;17.110;2024-01-07T14:55:43;16.87;;;9.67;;
15132;SDS011;7667;51.232;17.110;2024-01-07T14:58:11;13.77;;;9.17;;
15132;SDS011;7667;51.232;17.110;2024-01-07T15:00:39;13.33;;;8.50;;
15132;SDS011;7667;51.232;17.110;2024-01-07T15:03:07;14.10;;;9.13;;